BEL4BER HBBA-EBBR
Flight info
| Callsign | BEL4BER |
|---|---|
| Flight time | N/A |
| Altitude | 36000 |
| Route | DCT KIVUR UB607 GOM UY476 EDBIV/N0479F370 UT325 POGBA/N0482F360 UT325 GOVEL/N0478F380 UG655 GARIN M214 SEB M740 SARKI/N0466F400 DCT DOBIX DCT OSDET DCT GISIG DCT DEDOM DCT BAKRO DCT OTMUV DCT TONDA DCT CERVI DCT VADEM DCT GILIR DCT IBERA N853 DIK N852 LNO LNO6A |
| Aircraft | A339/H-SADE1E2E3GHIJ3J5M1P2RWXY/LB2D1 |
Departure
| Time | 2026-05-05 07:26 |
|---|---|
| Airport | Bujumbura Melchior Ndadaye International Airport (HBBA) |
Arrival
| Time | N/A |
|---|---|
| Airport | Brussels Airport (EBBR) |
| Time | Latitude | Longitude | Altitude | Speed | Heading |
|---|---|---|---|---|---|
| 2026-05-05 07:11 | -3.32070 | 29.32022 | 2602 ft | 0 kts | 80° |
| 2026-05-05 07:18 | -3.32070 | 29.32027 | 2602 ft | 0 kts | 98° |
| 2026-05-05 07:18 | -3.32073 | 29.32033 | 2602 ft | 1 kts | 115° |
| 2026-05-05 07:19 | -3.32075 | 29.32035 | 2602 ft | 0 kts | 129° |
| 2026-05-05 07:19 | -3.32077 | 29.32036 | 2602 ft | 0 kts | 140° |
| 2026-05-05 07:19 | -3.32079 | 29.32037 | 2602 ft | 0 kts | 150° |
| 2026-05-05 07:19 | -3.32086 | 29.32040 | 2603 ft | 2 kts | 159° |
| 2026-05-05 07:20 | -3.32096 | 29.32037 | 2602 ft | 1 kts | 218° |
| 2026-05-05 07:20 | -3.32124 | 29.32010 | 2602 ft | 8 kts | 223° |
| 2026-05-05 07:20 | -3.32177 | 29.31958 | 2601 ft | 12 kts | 231° |
| 2026-05-05 07:20 | -3.32218 | 29.31867 | 2599 ft | 16 kts | 245° |
| 2026-05-05 07:21 | -3.32304 | 29.31836 | 2598 ft | 14 kts | 157° |
| 2026-05-05 07:21 | -3.32380 | 29.31861 | 2599 ft | 8 kts | 178° |
| 2026-05-05 07:21 | -3.32455 | 29.31864 | 2599 ft | 12 kts | 171° |
| 2026-05-05 07:21 | -3.32551 | 29.31883 | 2598 ft | 16 kts | 167° |
| 2026-05-05 07:22 | -3.32671 | 29.31910 | 2599 ft | 18 kts | 172° |
| 2026-05-05 07:22 | -3.32809 | 29.31927 | 2598 ft | 21 kts | 174° |
| 2026-05-05 07:22 | -3.32958 | 29.31945 | 2598 ft | 20 kts | 172° |
| 2026-05-05 07:22 | -3.33101 | 29.31965 | 2597 ft | 20 kts | 171° |
| 2026-05-05 07:23 | -3.33242 | 29.31988 | 2597 ft | 19 kts | 171° |
| 2026-05-05 07:23 | -3.33375 | 29.32009 | 2596 ft | 19 kts | 171° |
| 2026-05-05 07:23 | -3.33511 | 29.32031 | 2594 ft | 19 kts | 171° |
| 2026-05-05 07:23 | -3.33646 | 29.32052 | 2593 ft | 20 kts | 171° |
| 2026-05-05 07:24 | -3.33780 | 29.32074 | 2591 ft | 15 kts | 171° |
| 2026-05-05 07:24 | -3.33887 | 29.32100 | 2589 ft | 15 kts | 153° |
| 2026-05-05 07:24 | -3.33981 | 29.32122 | 2589 ft | 9 kts | 205° |
| 2026-05-05 07:24 | -3.33985 | 29.32093 | 2589 ft | 5 kts | 335° |
| 2026-05-05 07:25 | -3.33936 | 29.32089 | 2589 ft | 18 kts | 359° |
| 2026-05-05 07:25 | -3.33580 | 29.32037 | 2593 ft | 84 kts | 349° |
| 2026-05-05 07:25 | -3.32787 | 29.31920 | 2599 ft | 142 kts | 347° |
| 2026-05-05 07:25 | -3.31644 | 29.31729 | 2605 ft | 189 kts | 351° |
| 2026-05-05 07:26 | -3.30265 | 29.31502 | 2968 ft | 205 kts | 349° |
| 2026-05-05 07:26 | -3.28849 | 29.31227 | 3495 ft | 209 kts | 348° |
| 2026-05-05 07:26 | -3.27422 | 29.30937 | 4106 ft | 206 kts | 353° |
| 2026-05-05 07:26 | -3.26030 | 29.30839 | 4666 ft | 202 kts | 1° |
| 2026-05-05 07:27 | -3.24571 | 29.30861 | 4915 ft | 216 kts | 0° |
| 2026-05-05 07:27 | -3.23012 | 29.30839 | 5178 ft | 231 kts | 0° |
| 2026-05-05 07:27 | -3.21345 | 29.30798 | 5453 ft | 246 kts | 360° |
| 2026-05-05 07:27 | -3.19585 | 29.30744 | 5727 ft | 262 kts | 359° |
| 2026-05-05 07:28 | -3.17713 | 29.30676 | 6046 ft | 276 kts | 359° |
| 2026-05-05 07:28 | -3.15768 | 29.30599 | 6588 ft | 281 kts | 359° |
| 2026-05-05 07:28 | -3.13793 | 29.30518 | 7203 ft | 282 kts | 359° |
| 2026-05-05 07:28 | -3.11836 | 29.30436 | 7794 ft | 284 kts | 359° |
| 2026-05-05 07:29 | -3.09856 | 29.30353 | 8370 ft | 286 kts | 359° |
| 2026-05-05 07:29 | -3.07845 | 29.30269 | 8946 ft | 288 kts | 359° |
| 2026-05-05 07:29 | -3.05824 | 29.30182 | 9514 ft | 290 kts | 359° |
| 2026-05-05 07:29 | -3.03809 | 29.30096 | 10076 ft | 292 kts | 359° |
| 2026-05-05 07:30 | -3.01771 | 29.30012 | 10592 ft | 296 kts | 359° |